createdAt,value
2023-02-17T00:01:37.153Z,11
2023-02-17T00:02:43.169Z,11
2023-02-17T00:03:49.134Z,12
2023-02-17T00:05:32.011Z,12
2023-02-17T00:06:37.922Z,12
2023-02-17T00:07:43.928Z,12
2023-02-17T00:08:49.911Z,11
2023-02-17T00:10:32.793Z,12
2023-02-17T00:11:38.746Z,12
2023-02-17T00:12:44.721Z,11
2023-02-17T00:13:56.391Z,12
2023-02-17T00:15:41.803Z,11
2023-02-17T00:16:47.692Z,11
2023-02-17T00:18:30.660Z,12
2023-02-17T00:19:36.626Z,11
2023-02-17T00:20:42.645Z,11
2023-02-17T00:21:48.481Z,11
2023-02-17T00:23:31.449Z,11
2023-02-17T00:24:37.408Z,12
2023-02-17T00:25:43.350Z,12
2023-02-17T00:26:49.280Z,11
2023-02-17T00:28:32.259Z,12
2023-02-17T00:29:38.189Z,11
2023-02-17T00:30:44.202Z,11
2023-02-17T00:31:54.293Z,12
2023-02-17T00:33:41.220Z,11
2023-02-17T00:34:47.175Z,11
2023-02-17T00:36:30.204Z,11
2023-02-17T00:37:36.131Z,11
2023-02-17T00:38:42.013Z,10
2023-02-17T00:39:48.046Z,10
2023-02-17T00:41:35.181Z,11
2023-02-17T00:42:45.185Z,10
2023-02-17T00:43:55.147Z,10
2023-02-17T00:45:38.079Z,11
2023-02-17T00:46:44.104Z,11
2023-02-17T00:47:49.954Z,10
2023-02-17T00:49:32.944Z,10
2023-02-17T00:50:38.848Z,10
2023-02-17T00:51:44.838Z,10
2023-02-17T00:52:50.751Z,11
2023-02-17T00:54:33.824Z,10
2023-02-17T00:55:39.722Z,11
2023-02-17T00:56:45.591Z,10
2023-02-17T00:57:51.487Z,10
2023-02-17T00:59:34.663Z,10
2023-02-17T01:00:44.561Z,10
2023-02-17T01:01:54.710Z,10
2023-02-17T01:03:37.532Z,10
2023-02-17T01:04:43.500Z,10
2023-02-17T01:05:49.439Z,9
2023-02-17T01:07:32.398Z,10
2023-02-17T01:08:38.321Z,10
2023-02-17T01:09:44.284Z,10
2023-02-17T01:10:50.197Z,9
2023-02-17T01:12:33.242Z,9
2023-02-17T01:13:39.112Z,10
2023-02-17T01:14:45.062Z,9
2023-02-17T01:15:51.033Z,10
2023-02-17T01:17:38.058Z,9
2023-02-17T01:18:44.361Z,10
2023-02-17T01:19:49.932Z,10
2023-02-17T01:21:32.968Z,10
2023-02-17T01:22:38.848Z,9
2023-02-17T01:23:45.155Z,10
2023-02-17T01:24:50.695Z,10
2023-02-17T01:26:33.807Z,9
2023-02-17T01:27:43.730Z,9
2023-02-17T01:28:49.712Z,9
2023-02-17T01:30:32.718Z,9
2023-02-17T01:31:38.764Z,9
2023-02-17T01:32:44.513Z,9
2023-02-17T01:33:50.509Z,9
2023-02-17T01:35:33.433Z,9
2023-02-17T01:36:39.404Z,9
2023-02-17T01:37:45.348Z,9
2023-02-17T01:38:51.268Z,9
2023-02-17T01:40:38.333Z,9
2023-02-17T01:41:44.263Z,9
2023-02-17T01:42:50.156Z,9
2023-02-17T01:44:33.206Z,8
2023-02-17T01:45:39.140Z,8
2023-02-17T01:46:45.164Z,8
2023-02-17T01:47:50.924Z,9
2023-02-17T01:49:34.050Z,8
2023-02-17T01:50:39.922Z,8
2023-02-17T01:51:49.957Z,8
2023-02-17T01:53:32.910Z,8
2023-02-17T01:54:42.973Z,8
2023-02-17T01:55:53.028Z,8
2023-02-17T01:58:45.967Z,8
2023-02-17T02:00:28.946Z,8
2023-02-17T02:01:34.993Z,8
2023-02-17T02:02:45.119Z,8
2023-02-17T02:03:55.018Z,8
2023-02-17T02:05:37.902Z,8
2023-02-17T02:06:43.881Z,8
2023-02-17T02:07:49.819Z,9
2023-02-17T02:09:32.849Z,8
2023-02-17T02:10:38.731Z,9
2023-02-17T02:11:44.658Z,8
2023-02-17T02:12:50.656Z,8
2023-02-17T02:14:33.609Z,8
2023-02-17T02:15:43.634Z,8
2023-02-17T02:16:53.717Z,8
2023-02-17T02:18:40.702Z,8
2023-02-17T02:19:46.753Z,8
2023-02-17T02:22:39.675Z,8
2023-02-17T02:23:45.591Z,8
2023-02-17T02:24:51.527Z,7
2023-02-17T02:26:34.603Z,8
2023-02-17T02:27:40.473Z,7
2023-02-17T02:28:46.362Z,7
2023-02-17T02:30:29.489Z,7
2023-02-17T02:31:35.410Z,7
2023-02-17T02:32:41.238Z,7
2023-02-17T02:33:47.165Z,7
2023-02-17T02:35:30.243Z,7
2023-02-17T02:36:36.134Z,7
2023-02-17T02:37:42.165Z,7
2023-02-17T02:38:52.070Z,7
2023-02-17T02:40:39.145Z,7
2023-02-17T02:41:45.165Z,7
2023-02-17T02:42:50.984Z,7
2023-02-17T02:44:34.001Z,6
2023-02-17T02:45:39.936Z,7
2023-02-17T02:46:45.827Z,7
2023-02-17T02:47:51.818Z,7
2023-02-17T02:49:34.854Z,7
2023-02-17T02:50:40.732Z,7
2023-02-17T02:51:50.730Z,7
2023-02-17T02:53:37.816Z,7
2023-02-17T02:54:43.788Z,7
2023-02-17T02:55:49.677Z,7
2023-02-17T02:57:32.648Z,7
2023-02-17T02:58:38.602Z,7
2023-02-17T02:59:44.547Z,7
2023-02-17T03:00:50.479Z,6
2023-02-17T03:02:33.509Z,6
2023-02-17T03:03:39.421Z,6
2023-02-17T03:04:45.397Z,7
2023-02-17T03:05:51.329Z,6
2023-02-17T03:07:34.245Z,6
2023-02-17T03:08:40.212Z,6
2023-02-17T03:09:50.167Z,6
2023-02-17T03:11:33.271Z,7
2023-02-17T03:12:39.108Z,6
2023-02-17T03:13:45.053Z,7
2023-02-17T03:14:50.969Z,6
2023-02-17T03:16:34.002Z,6
2023-02-17T03:17:39.897Z,6
2023-02-17T03:18:45.936Z,6
2023-02-17T03:19:51.747Z,6
2023-02-17T03:21:34.758Z,6
2023-02-17T03:22:40.664Z,6
2023-02-17T03:23:46.659Z,6
2023-02-17T03:26:39.712Z,6
2023-02-17T03:27:45.656Z,6
2023-02-17T03:28:51.589Z,5
2023-02-17T03:30:34.481Z,6
2023-02-17T03:31:40.664Z,6
2023-02-17T03:32:46.417Z,6
2023-02-17T03:34:29.450Z,6
2023-02-17T03:35:35.375Z,6
2023-02-17T03:36:45.282Z,6
2023-02-17T03:37:51.218Z,6
2023-02-17T03:39:34.250Z,6
2023-02-17T03:40:40.201Z,6
2023-02-17T03:41:46.148Z,7
2023-02-17T03:43:29.178Z,6
2023-02-17T03:44:35.106Z,6
2023-02-17T03:45:40.939Z,6
2023-02-17T03:46:46.977Z,6
2023-02-17T03:48:29.924Z,6
2023-02-17T03:49:35.877Z,6
2023-02-17T03:50:41.695Z,6
2023-02-17T03:51:47.632Z,6
2023-02-17T03:54:40.640Z,6
2023-02-17T03:55:46.703Z,6
2023-02-17T03:58:39.717Z,6
2023-02-17T03:59:49.651Z,6
2023-02-17T04:01:32.697Z,6
2023-02-17T04:02:38.543Z,5
2023-02-17T04:03:44.633Z,5
2023-02-17T04:04:50.431Z,5
2023-02-17T04:06:33.511Z,5
2023-02-17T04:07:39.433Z,6
2023-02-17T04:08:45.311Z,5
2023-02-17T04:09:51.172Z,6
2023-02-17T04:11:34.286Z,6
2023-02-17T04:12:40.133Z,5
2023-02-17T04:13:46.138Z,6
2023-02-17T04:15:29.058Z,5
2023-02-17T04:16:35.017Z,6
2023-02-17T04:17:40.888Z,6
2023-02-17T04:18:46.817Z,6
2023-02-17T04:20:29.873Z,6
2023-02-17T04:21:39.957Z,6
2023-02-17T04:22:45.813Z,5
2023-02-17T04:24:29.018Z,6
2023-02-17T04:25:34.698Z,5
2023-02-17T04:26:40.632Z,5
2023-02-17T04:27:46.568Z,5
2023-02-17T04:30:39.711Z,6
2023-02-17T04:31:45.642Z,5
2023-02-17T04:32:51.407Z,6
2023-02-17T04:34:34.519Z,6
2023-02-17T04:35:44.541Z,6
2023-02-17T04:36:54.488Z,6
2023-02-17T04:38:37.493Z,6
2023-02-17T04:39:43.440Z,6
2023-02-17T04:40:49.397Z,6
2023-02-17T04:42:32.414Z,5
2023-02-17T04:43:38.309Z,6
2023-02-17T04:44:48.322Z,6
2023-02-17T04:46:35.401Z,6
2023-02-17T04:47:41.339Z,6
2023-02-17T04:48:51.299Z,6
2023-02-17T04:50:34.324Z,6
2023-02-17T04:51:40.367Z,6
2023-02-17T04:52:46.325Z,6
2023-02-17T04:53:56.274Z,6
2023-02-17T04:55:43.316Z,6
2023-02-17T04:56:49.362Z,6
2023-02-17T04:58:32.316Z,6
2023-02-17T04:59:42.256Z,6
2023-02-17T05:00:48.183Z,6
2023-02-17T05:02:31.163Z,6
2023-02-17T05:03:37.103Z,5
2023-02-17T05:04:45.837Z,6
2023-02-17T05:05:49.040Z,6
2023-02-17T05:07:32.006Z,6
2023-02-17T05:08:37.897Z,6
2023-02-17T05:09:43.832Z,5
2023-02-17T05:10:49.794Z,6
2023-02-17T05:12:36.826Z,6
2023-02-17T05:13:42.873Z,5
2023-02-17T05:14:48.693Z,5
2023-02-17T05:16:31.674Z,6
2023-02-17T05:17:37.626Z,6
2023-02-17T05:18:43.558Z,5
2023-02-17T05:19:49.525Z,5
2023-02-17T05:21:36.676Z,6
2023-02-17T05:22:42.642Z,6
2023-02-17T05:23:48.430Z,5
2023-02-17T05:25:31.443Z,6
2023-02-17T05:26:41.446Z,6
2023-02-17T05:27:47.411Z,5
2023-02-17T05:29:30.733Z,6
2023-02-17T05:30:36.405Z,6
2023-02-17T05:31:42.321Z,6
2023-02-17T05:32:48.191Z,5
2023-02-17T05:34:31.128Z,5
2023-02-17T05:35:37.085Z,5
2023-02-17T05:36:43.097Z,6
2023-02-17T05:37:49.075Z,6
2023-02-17T05:39:31.934Z,6
2023-02-17T05:40:37.868Z,5
2023-02-17T05:41:43.976Z,6
2023-02-17T05:42:54.047Z,6
2023-02-17T05:44:40.911Z,5
2023-02-17T05:45:46.853Z,6
2023-02-17T05:47:29.866Z,5
2023-02-17T05:48:35.818Z,5
2023-02-17T05:49:41.769Z,6
2023-02-17T05:50:47.642Z,6
2023-02-17T05:53:40.768Z,6
2023-02-17T05:54:46.591Z,5
2023-02-17T05:57:39.644Z,6
2023-02-17T05:58:45.619Z,5
2023-02-17T05:59:51.456Z,6
2023-02-17T06:01:37.076Z,6
2023-02-17T06:02:40.406Z,5
2023-02-17T06:03:46.325Z,5
2023-02-17T06:05:29.303Z,6
2023-02-17T06:06:35.323Z,5
2023-02-17T06:07:41.252Z,5
2023-02-17T06:08:47.202Z,5
2023-02-17T06:10:34.192Z,5
2023-02-17T06:11:40.170Z,5
2023-02-17T06:12:46.114Z,5
2023-02-17T06:14:29.119Z,6
2023-02-17T06:15:35.365Z,6
2023-02-17T06:16:40.887Z,5
2023-02-17T06:17:46.832Z,5
2023-02-17T06:19:29.979Z,5
2023-02-17T06:20:39.856Z,5
2023-02-17T06:21:45.860Z,5
2023-02-17T06:22:51.754Z,5
2023-02-17T06:24:38.810Z,5
2023-02-17T06:25:44.754Z,5
2023-02-17T06:26:50.618Z,5
2023-02-17T06:28:35.072Z,5
2023-02-17T06:29:39.562Z,5
2023-02-17T06:30:45.588Z,5
2023-02-17T06:31:51.589Z,5
2023-02-17T06:33:38.549Z,5
2023-02-17T06:34:44.499Z,5
2023-02-17T06:35:50.386Z,5
2023-02-17T06:37:33.374Z,5
2023-02-17T06:38:39.333Z,5
2023-02-17T06:39:45.271Z,5
2023-02-17T06:40:51.283Z,5
2023-02-17T06:42:38.250Z,6
2023-02-17T06:43:44.199Z,5
2023-02-17T06:44:50.105Z,5
2023-02-17T06:46:33.204Z,5
2023-02-17T06:47:39.052Z,4
2023-02-17T06:48:45.004Z,5
2023-02-17T06:49:50.908Z,5
2023-02-17T06:51:37.989Z,5
2023-02-17T06:52:43.976Z,5
2023-02-17T06:53:49.954Z,4
2023-02-17T06:55:32.979Z,5
2023-02-17T06:56:42.876Z,5
2023-02-17T06:57:48.859Z,5
2023-02-17T06:59:31.781Z,5
2023-02-17T07:00:37.727Z,5
2023-02-17T07:01:43.725Z,5
2023-02-17T07:02:49.693Z,5
2023-02-17T07:04:32.604Z,5
2023-02-17T07:05:42.646Z,5
2023-02-17T07:06:48.533Z,5
2023-02-17T07:08:33.852Z,4
2023-02-17T07:09:37.451Z,5
2023-02-17T07:10:43.444Z,5
2023-02-17T07:11:49.340Z,6
2023-02-17T07:13:32.376Z,8
2023-02-17T07:14:38.225Z,6
2023-02-17T07:15:44.237Z,6
2023-02-17T07:16:50.119Z,5
2023-02-17T07:18:33.144Z,5
2023-02-17T07:19:43.148Z,5
2023-02-17T07:20:49.092Z,5
2023-02-17T07:22:36.206Z,5
2023-02-17T07:23:42.069Z,4
2023-02-17T07:24:47.989Z,5
2023-02-17T07:26:31.014Z,5
2023-02-17T07:27:36.921Z,5
2023-02-17T07:28:42.932Z,5
2023-02-17T07:29:48.847Z,5
2023-02-17T07:31:31.920Z,5
2023-02-17T07:32:41.824Z,5
2023-02-17T07:33:47.755Z,5
2023-02-17T07:35:30.733Z,5
2023-02-17T07:36:36.640Z,4
2023-02-17T07:37:42.609Z,5
2023-02-17T07:38:48.534Z,5
2023-02-17T07:40:31.520Z,5
2023-02-17T07:41:41.557Z,5
2023-02-17T07:42:47.482Z,5
2023-02-17T07:44:30.478Z,5
2023-02-17T07:45:36.493Z,5
2023-02-17T07:46:42.398Z,5
2023-02-17T07:47:48.281Z,5
2023-02-17T07:49:31.276Z,5
2023-02-17T07:50:37.142Z,5
2023-02-17T07:51:43.156Z,5
2023-02-17T07:52:49.114Z,5
2023-02-17T07:54:36.207Z,5
2023-02-17T07:55:42.155Z,5
2023-02-17T07:56:48.028Z,5
2023-02-17T07:58:35.143Z,6
2023-02-17T07:59:41.026Z,6
2023-02-17T08:00:46.914Z,5
2023-02-17T08:02:30.008Z,6
2023-02-17T08:03:35.961Z,5
2023-02-17T08:04:41.780Z,5
2023-02-17T08:05:49.077Z,5
2023-02-17T08:07:30.719Z,5
2023-02-17T08:08:40.707Z,5
2023-02-17T08:09:46.643Z,5
2023-02-17T08:12:39.762Z,6
2023-02-17T08:13:49.774Z,6
2023-02-17T08:15:32.755Z,8
2023-02-17T08:16:38.806Z,5
2023-02-17T08:17:50.986Z,5
2023-02-17T08:19:47.617Z,5
2023-02-17T08:20:41.674Z,5
2023-02-17T08:21:47.611Z,4
2023-02-17T08:24:40.676Z,5
2023-02-17T08:25:50.679Z,5
2023-02-17T08:27:37.765Z,4
2023-02-17T08:28:43.785Z,4
2023-02-17T08:29:49.693Z,5
2023-02-17T08:31:32.929Z,4
2023-02-17T08:32:42.646Z,4
2023-02-17T08:33:48.609Z,4
2023-02-17T08:35:35.644Z,4
2023-02-17T08:36:41.550Z,5
2023-02-17T08:37:47.539Z,5
2023-02-17T08:39:30.512Z,4
2023-02-17T08:40:40.626Z,4
2023-02-17T08:41:46.475Z,5
2023-02-17T08:43:29.443Z,5
2023-02-17T08:44:35.443Z,5
2023-02-17T08:45:41.351Z,5
2023-02-17T08:46:47.235Z,6
2023-02-17T08:48:30.208Z,5
2023-02-17T08:49:36.174Z,5
2023-02-17T08:50:42.084Z,5
2023-02-17T08:51:48.053Z,5
2023-02-17T08:53:30.985Z,5
2023-02-17T08:54:36.936Z,5
2023-02-17T08:55:49.148Z,5
2023-02-17T08:56:53.020Z,5
2023-02-17T08:59:50.094Z,4
2023-02-17T09:01:33.172Z,5
2023-02-17T09:02:38.955Z,5
2023-02-17T09:03:44.919Z,4
2023-02-17T09:04:50.781Z,5
2023-02-17T09:06:33.850Z,5
2023-02-17T09:07:39.718Z,5
2023-02-17T09:08:45.726Z,4
2023-02-17T09:09:51.593Z,5
2023-02-17T09:11:38.685Z,4
2023-02-17T09:12:44.627Z,5
2023-02-17T09:13:50.540Z,4
2023-02-17T09:15:37.742Z,4
2023-02-17T09:16:47.662Z,4
2023-02-17T09:19:40.663Z,4
2023-02-17T09:20:46.617Z,5
2023-02-17T09:23:39.756Z,4
2023-02-17T09:24:49.713Z,4
2023-02-17T09:26:32.808Z,4
2023-02-17T09:27:38.593Z,4
2023-02-17T09:28:44.524Z,4
2023-02-17T09:29:50.401Z,4
2023-02-17T09:31:33.681Z,4
2023-02-17T09:32:39.363Z,4
2023-02-17T09:33:45.382Z,4
2023-02-17T09:34:51.174Z,4
2023-02-17T09:36:34.353Z,4
2023-02-17T09:37:40.231Z,4
2023-02-17T09:38:46.097Z,4
2023-02-17T09:40:29.050Z,3
2023-02-17T09:41:35.161Z,4
2023-02-17T09:42:45.052Z,3
2023-02-17T09:43:55.159Z,3
2023-02-17T09:45:38.020Z,3
2023-02-17T09:46:59.380Z,3
2023-02-17T09:47:50.043Z,3
2023-02-17T09:49:32.897Z,3
2023-02-17T09:50:38.836Z,4
2023-02-17T09:51:44.766Z,3
2023-02-17T09:52:50.724Z,3
2023-02-17T09:54:33.664Z,3
2023-02-17T09:55:39.676Z,3
2023-02-17T09:56:45.522Z,3
2023-02-17T09:57:51.590Z,3
2023-02-17T09:59:34.489Z,3
2023-02-17T10:00:40.442Z,3
2023-02-17T10:01:46.370Z,3
2023-02-17T10:03:29.409Z,3
2023-02-17T10:04:39.357Z,5
2023-02-17T10:05:45.366Z,6
2023-02-17T10:06:51.403Z,4
2023-02-17T10:08:34.195Z,4
2023-02-17T10:09:40.285Z,3
2023-02-17T10:10:46.164Z,3
2023-02-17T10:12:29.027Z,3
2023-02-17T10:13:35.039Z,3
2023-02-17T10:14:40.938Z,3
2023-02-17T10:15:46.866Z,3
2023-02-17T10:17:29.922Z,2
2023-02-17T10:18:35.800Z,3
2023-02-17T10:19:41.903Z,3
2023-02-17T10:20:47.596Z,3
2023-02-17T10:23:40.715Z,3
2023-02-17T10:24:46.658Z,3
2023-02-17T10:27:39.743Z,3
2023-02-17T10:28:45.548Z,3
2023-02-17T10:30:28.602Z,2
2023-02-17T10:31:34.530Z,2
2023-02-17T10:32:40.482Z,2
2023-02-17T10:33:46.366Z,2
2023-02-17T10:35:29.307Z,2
2023-02-17T10:36:35.348Z,2
2023-02-17T10:37:41.163Z,2
2023-02-17T10:38:47.094Z,2
2023-02-17T10:42:21.264Z,2
2023-02-17T10:42:54.330Z,2
2023-02-17T10:44:37.277Z,2
2023-02-17T10:45:47.251Z,2
2023-02-17T10:47:30.284Z,1
2023-02-17T10:48:36.228Z,1
2023-02-17T10:49:46.256Z,2
2023-02-17T10:51:29.283Z,2
2023-02-17T10:52:35.187Z,1
2023-02-17T10:53:41.055Z,1
2023-02-17T10:54:51.033Z,2
2023-02-17T10:56:34.099Z,2
2023-02-17T10:57:40.077Z,2
2023-02-17T10:58:45.954Z,1
2023-02-17T11:00:28.928Z,2
2023-02-17T11:01:34.953Z,1
2023-02-17T11:02:40.793Z,1
2023-02-17T11:03:46.822Z,1
2023-02-17T11:05:29.778Z,2
2023-02-17T11:06:39.772Z,1
2023-02-17T11:07:49.856Z,1
2023-02-17T11:09:36.823Z,1
2023-02-17T11:10:42.816Z,2
2023-02-17T11:11:48.885Z,2
2023-02-17T11:13:31.722Z,3
2023-02-17T11:14:37.614Z,2
2023-02-17T11:15:43.540Z,2
2023-02-17T11:16:49.475Z,1
2023-02-17T11:18:32.507Z,2
2023-02-17T11:19:38.447Z,2
2023-02-17T11:20:44.339Z,1
2023-02-17T11:21:50.276Z,1
2023-02-17T11:23:33.268Z,1
2023-02-17T11:24:39.216Z,1
2023-02-17T11:25:45.162Z,1
2023-02-17T11:27:28.130Z,1
2023-02-17T11:28:34.126Z,1
2023-02-17T11:29:39.983Z,1
2023-02-17T11:30:46.341Z,1
2023-02-17T11:32:28.899Z,1
2023-02-17T11:33:34.825Z,1
2023-02-17T11:34:40.782Z,2
2023-02-17T11:35:46.672Z,2
2023-02-17T11:37:29.718Z,2
2023-02-17T11:38:35.609Z,1
2023-02-17T11:39:41.538Z,1
2023-02-17T11:40:47.464Z,1
2023-02-17T11:42:30.498Z,1
2023-02-17T11:43:36.953Z,1
2023-02-17T11:44:42.333Z,1
2023-02-17T11:45:48.349Z,1
2023-02-17T11:47:35.382Z,1
2023-02-17T11:48:41.261Z,1
2023-02-17T11:49:47.220Z,1
2023-02-17T11:51:30.206Z,1
2023-02-17T11:52:36.144Z,1
2023-02-17T11:53:42.050Z,1
2023-02-17T11:54:47.973Z,1
2023-02-17T11:56:30.940Z,1
2023-02-17T11:57:37.127Z,1
2023-02-17T11:58:46.964Z,1
2023-02-17T12:00:34.130Z,1
2023-02-17T12:01:39.976Z,1
2023-02-17T12:02:46.007Z,1
2023-02-17T12:03:51.819Z,1
2023-02-17T12:05:34.915Z,1
2023-02-17T12:06:40.817Z,1
2023-02-17T12:07:46.656Z,1
2023-02-17T12:10:39.753Z,1
2023-02-17T12:11:45.717Z,1
2023-02-17T12:13:28.674Z,1
2023-02-17T12:14:34.625Z,1
2023-02-17T12:15:40.480Z,1
2023-02-17T12:16:46.634Z,1
2023-02-17T12:18:29.369Z,1
2023-02-17T12:19:37.022Z,1
2023-02-17T12:20:41.248Z,1
2023-02-17T12:21:47.180Z,1
2023-02-17T12:23:30.163Z,1
2023-02-17T12:24:36.105Z,1
2023-02-17T12:25:42.024Z,1
2023-02-17T12:26:48.002Z,1
2023-02-17T12:28:30.920Z,1
2023-02-17T12:29:36.985Z,1
2023-02-17T12:30:42.965Z,1
2023-02-17T12:31:52.957Z,1
2023-02-17T12:33:35.908Z,1
2023-02-17T12:34:41.763Z,1
2023-02-17T12:35:47.756Z,1
2023-02-17T12:37:30.685Z,1
2023-02-17T12:38:36.607Z,1
2023-02-17T12:39:42.534Z,1
2023-02-17T12:40:48.516Z,1
2023-02-17T12:42:31.501Z,1
2023-02-17T12:43:41.477Z,1
2023-02-17T12:44:47.415Z,1
2023-02-17T12:46:30.444Z,1
2023-02-17T12:47:36.400Z,1
2023-02-17T12:48:42.321Z,3
2023-02-17T12:49:48.222Z,1
2023-02-17T12:51:31.228Z,1
2023-02-17T12:52:37.147Z,1
2023-02-17T12:53:43.048Z,1
2023-02-17T12:54:49.020Z,1
2023-02-17T12:56:31.981Z,1
2023-02-17T12:57:37.961Z,1
2023-02-17T12:58:43.932Z,1
2023-02-17T12:59:49.864Z,1
2023-02-17T13:01:32.868Z,1
2023-02-17T13:02:38.744Z,1
2023-02-17T13:03:44.601Z,1
2023-02-17T13:04:50.627Z,1
2023-02-17T13:06:33.585Z,1
2023-02-17T13:07:39.485Z,1
2023-02-17T13:08:45.404Z,1
2023-02-17T13:10:28.384Z,1
2023-02-17T13:11:34.334Z,1
2023-02-17T13:12:40.379Z,1
2023-02-17T13:13:46.271Z,1
2023-02-17T13:15:29.482Z,1
2023-02-17T13:16:35.117Z,1
2023-02-17T13:17:41.036Z,1
2023-02-17T13:18:48.574Z,1
2023-02-17T13:22:21.146Z,1
2023-02-17T13:22:54.252Z,1
2023-02-17T13:24:37.117Z,1
2023-02-17T13:25:43.067Z,1
2023-02-17T13:26:49.026Z,1
2023-02-17T13:28:32.048Z,1
2023-02-17T13:29:42.032Z,1
2023-02-17T13:30:52.211Z,1
2023-02-17T13:32:35.023Z,1
2023-02-17T13:33:40.932Z,1
2023-02-17T13:34:46.868Z,1
2023-02-17T13:36:29.899Z,1
2023-02-17T13:37:35.914Z,1
2023-02-17T13:38:42.058Z,1
2023-02-17T13:39:47.653Z,1
2023-02-17T13:42:40.730Z,1
2023-02-17T13:43:50.681Z,1
2023-02-17T13:45:33.720Z,2
2023-02-17T13:46:39.716Z,1
2023-02-17T13:47:45.574Z,1
2023-02-17T13:48:51.491Z,1
2023-02-17T13:50:34.512Z,1
2023-02-17T13:51:40.442Z,1
2023-02-17T13:52:46.521Z,1
2023-02-17T13:54:29.444Z,1
2023-02-17T13:55:35.259Z,1
2023-02-17T13:56:41.180Z,1
2023-02-17T13:57:47.116Z,1
2023-02-17T13:59:30.100Z,1
2023-02-17T14:00:36.128Z,1
2023-02-17T14:01:42.124Z,1
2023-02-17T14:02:47.925Z,1
2023-02-17T14:04:30.928Z,1
2023-02-17T14:05:36.887Z,1
2023-02-17T14:06:46.839Z,1
2023-02-17T14:08:29.927Z,1
2023-02-17T14:09:39.968Z,1
2023-02-17T14:10:49.935Z,1
2023-02-17T14:12:32.894Z,1
2023-02-17T14:13:38.845Z,1
2023-02-17T14:14:44.749Z,1
2023-02-17T14:15:50.722Z,2
2023-02-17T14:17:37.802Z,2
2023-02-17T14:18:47.851Z,2
2023-02-17T14:20:30.764Z,2
2023-02-17T14:21:36.753Z,2
2023-02-17T14:22:44.228Z,2
2023-02-17T14:23:48.747Z,2
2023-02-17T14:25:31.534Z,2
2023-02-17T14:26:37.484Z,1
2023-02-17T14:27:43.450Z,2
2023-02-17T14:28:49.465Z,1
2023-02-17T14:30:32.443Z,2
2023-02-17T14:31:38.381Z,1
2023-02-17T14:32:44.522Z,2
2023-02-17T14:33:54.517Z,1
2023-02-17T14:35:41.306Z,1
2023-02-17T14:36:47.394Z,1
2023-02-17T14:38:30.240Z,2
2023-02-17T14:39:36.231Z,2
2023-02-17T14:40:42.128Z,2
2023-02-17T14:41:48.056Z,2
2023-02-17T14:43:31.014Z,2
2023-02-17T14:44:36.966Z,2
2023-02-17T14:45:42.962Z,2
2023-02-17T14:46:49.024Z,2
2023-02-17T14:48:31.869Z,2
2023-02-17T14:49:37.739Z,2
2023-02-17T14:50:43.824Z,2
2023-02-17T14:51:49.582Z,2
2023-02-17T14:53:32.696Z,2
2023-02-17T14:54:38.649Z,2
2023-02-17T14:55:48.569Z,2
2023-02-17T14:57:31.542Z,2
2023-02-17T14:58:37.499Z,2
2023-02-17T14:59:43.406Z,2
2023-02-17T15:00:49.422Z,2
2023-02-17T15:02:32.339Z,2
2023-02-17T15:03:38.286Z,2
2023-02-17T15:04:44.239Z,2
2023-02-17T15:05:50.168Z,2
2023-02-17T15:07:33.178Z,2
2023-02-17T15:08:43.769Z,2
2023-02-17T15:09:53.334Z,2
2023-02-17T15:11:36.212Z,2
2023-02-17T15:12:42.133Z,2
2023-02-17T15:13:48.278Z,2
2023-02-17T15:15:31.108Z,2
2023-02-17T15:16:37.095Z,2
2023-02-17T15:17:46.960Z,2
2023-02-17T15:21:21.136Z,3
2023-02-17T15:21:54.155Z,2
2023-02-17T15:23:37.099Z,2
2023-02-17T15:24:43.126Z,3
2023-02-17T15:25:49.010Z,3
2023-02-17T15:27:31.948Z,2
2023-02-17T15:28:37.931Z,2
2023-02-17T15:29:47.952Z,2
2023-02-17T15:31:35.158Z,2
2023-02-17T15:32:40.913Z,2
2023-02-17T15:33:46.922Z,2
2023-02-17T15:35:29.901Z,2
2023-02-17T15:36:35.787Z,2
2023-02-17T15:37:41.708Z,3
2023-02-17T15:38:47.679Z,2
2023-02-17T15:41:40.655Z,3
2023-02-17T15:42:46.592Z,3
2023-02-17T15:45:39.678Z,3
2023-02-17T15:46:49.812Z,3
2023-02-17T15:48:32.632Z,4
2023-02-17T15:49:38.592Z,3
2023-02-17T15:50:44.528Z,3
2023-02-17T15:51:50.398Z,3
2023-02-17T15:53:33.496Z,3
2023-02-17T15:54:39.345Z,3
2023-02-17T15:55:45.378Z,4
2023-02-17T15:56:51.203Z,4
2023-02-17T15:58:34.244Z,3
2023-02-17T15:59:40.182Z,4
2023-02-17T16:00:46.210Z,3
2023-02-17T16:02:29.132Z,3
2023-02-17T16:03:35.098Z,3
2023-02-17T16:04:41.006Z,2
2023-02-17T16:05:46.849Z,2
2023-02-17T16:07:29.875Z,2
2023-02-17T16:08:35.829Z,3
2023-02-17T16:09:41.726Z,3
2023-02-17T16:10:47.628Z,2
2023-02-17T16:13:40.638Z,3
2023-02-17T16:14:46.623Z,3
2023-02-17T16:17:39.669Z,2
2023-02-17T16:18:45.659Z,3
2023-02-17T16:19:51.473Z,6
2023-02-17T16:21:34.516Z,6
2023-02-17T16:22:40.412Z,4
2023-02-17T16:23:46.324Z,3
2023-02-17T16:25:29.364Z,3
2023-02-17T16:26:35.238Z,3
2023-02-17T16:27:41.172Z,3
2023-02-17T16:28:47.135Z,3
2023-02-17T16:30:30.225Z,3
2023-02-17T16:31:40.348Z,3
2023-02-17T16:32:46.053Z,3
2023-02-17T16:34:29.137Z,3
2023-02-17T16:35:34.982Z,3
2023-02-17T16:36:40.872Z,3
2023-02-17T16:37:46.837Z,3
2023-02-17T16:39:29.813Z,4
2023-02-17T16:40:35.775Z,4
2023-02-17T16:41:41.771Z,3
2023-02-17T16:42:47.652Z,4
2023-02-17T16:45:40.647Z,4
2023-02-17T16:46:46.557Z,5
2023-02-17T16:49:39.594Z,4
2023-02-17T16:50:45.547Z,3
2023-02-17T16:51:51.408Z,2
2023-02-17T16:53:36.498Z,3
2023-02-17T16:54:40.381Z,3
2023-02-17T16:55:46.281Z,3
2023-02-17T16:57:29.407Z,3
2023-02-17T16:58:39.349Z,3
2023-02-17T16:59:45.244Z,3
2023-02-17T17:00:51.164Z,3
2023-02-17T17:02:34.319Z,3
2023-02-17T17:03:40.192Z,3
2023-02-17T17:04:46.025Z,3
2023-02-17T17:06:29.113Z,3
2023-02-17T17:07:35.287Z,4
2023-02-17T17:08:40.852Z,4
2023-02-17T17:10:06.934Z,10
2023-02-17T17:11:29.893Z,4
2023-02-17T17:12:35.735Z,4
2023-02-17T17:13:41.712Z,4
2023-02-17T17:14:47.609Z,4
2023-02-17T17:17:40.585Z,5
2023-02-17T17:18:46.619Z,5
2023-02-17T17:20:29.645Z,4
2023-02-17T17:21:35.488Z,5
2023-02-17T17:22:41.379Z,5
2023-02-17T17:23:47.368Z,5
2023-02-17T17:25:30.313Z,4
2023-02-17T17:26:36.229Z,4
2023-02-17T17:27:42.169Z,4
2023-02-17T17:28:48.167Z,5
2023-02-17T17:30:35.336Z,5
2023-02-17T17:31:41.158Z,4
2023-02-17T17:32:47.151Z,4
2023-02-17T17:36:21.203Z,5
2023-02-17T17:36:54.196Z,4
2023-02-17T17:38:37.326Z,5
2023-02-17T17:39:47.324Z,4
2023-02-17T17:41:30.177Z,4
2023-02-17T17:42:36.130Z,5
2023-02-17T17:43:42.128Z,4
2023-02-17T17:44:48.065Z,4
2023-02-17T17:46:30.991Z,4
2023-02-17T17:47:36.909Z,4
2023-02-17T17:48:42.918Z,4
2023-02-17T17:49:48.884Z,4
2023-02-17T17:51:31.758Z,4
2023-02-17T17:52:37.688Z,4
2023-02-17T17:53:43.633Z,4
2023-02-17T17:54:49.635Z,3
2023-02-17T17:56:32.551Z,4
2023-02-17T17:57:38.565Z,8
2023-02-17T17:58:44.531Z,5
2023-02-17T17:59:50.397Z,6
2023-02-17T18:01:33.396Z,5
2023-02-17T18:02:39.256Z,4
2023-02-17T18:03:45.192Z,5
2023-02-17T18:04:51.193Z,4
2023-02-17T18:06:34.170Z,4
2023-02-17T18:07:40.055Z,4
2023-02-17T18:08:45.982Z,4
2023-02-17T18:09:51.953Z,4
2023-02-17T18:11:34.891Z,4
2023-02-17T18:12:40.802Z,4
2023-02-17T18:13:46.899Z,4
2023-02-17T18:14:56.871Z,4
2023-02-17T18:16:43.916Z,4
2023-02-17T18:17:49.908Z,4
2023-02-17T18:19:32.929Z,4
2023-02-17T18:20:38.744Z,4
2023-02-17T18:21:44.668Z,4
2023-02-17T18:22:50.564Z,4
2023-02-17T18:24:33.675Z,4
2023-02-17T18:25:39.591Z,4
2023-02-17T18:26:45.444Z,5
2023-02-17T18:27:51.444Z,4
2023-02-17T18:29:34.402Z,4
2023-02-17T18:30:40.393Z,4
2023-02-17T18:31:46.368Z,5
2023-02-17T18:33:29.255Z,7
2023-02-17T18:34:35.147Z,4
2023-02-17T18:35:41.116Z,4
2023-02-17T18:36:47.129Z,4
2023-02-17T18:40:21.213Z,4
2023-02-17T18:40:54.237Z,4
2023-02-17T18:42:41.220Z,3
2023-02-17T18:43:47.269Z,4
2023-02-17T18:45:30.186Z,4
2023-02-17T18:46:36.192Z,4
2023-02-17T18:47:42.003Z,4
2023-02-17T18:48:47.944Z,4
2023-02-17T18:50:30.964Z,3
2023-02-17T18:51:36.907Z,4
2023-02-17T18:52:42.830Z,4
2023-02-17T18:53:48.764Z,4
2023-02-17T18:55:31.754Z,3
2023-02-17T18:56:41.745Z,4
2023-02-17T18:57:47.762Z,4
2023-02-17T18:59:30.661Z,4
2023-02-17T19:00:36.657Z,4
2023-02-17T19:01:42.608Z,3
2023-02-17T19:02:48.567Z,4
2023-02-17T19:04:31.471Z,5
2023-02-17T19:05:37.431Z,5
2023-02-17T19:06:43.421Z,5
2023-02-17T19:07:49.379Z,5
2023-02-17T19:09:36.377Z,6
2023-02-17T19:10:46.365Z,6
2023-02-17T19:12:29.376Z,6
2023-02-17T19:13:35.287Z,6
2023-02-17T19:14:41.224Z,6
2023-02-17T19:15:47.197Z,7
2023-02-17T19:17:30.188Z,8
2023-02-17T19:18:36.061Z,9
2023-02-17T19:19:42.002Z,4
2023-02-17T19:20:48.006Z,8
2023-02-17T19:22:30.923Z,5
2023-02-17T19:23:40.933Z,4
2023-02-17T19:24:46.915Z,4
2023-02-17T19:26:29.917Z,5
2023-02-17T19:27:35.833Z,5
2023-02-17T19:28:41.749Z,4
2023-02-17T19:29:47.790Z,5
2023-02-17T19:31:30.811Z,5
2023-02-17T19:32:40.688Z,5
2023-02-17T19:33:46.601Z,5
2023-02-17T19:36:39.711Z,6
2023-02-17T19:37:45.574Z,5
2023-02-17T19:38:55.578Z,5
2023-02-17T19:40:38.624Z,5